Terminal Aerodrome Forecast
Issued by NWS

Home | Current Version | Previous Version | Text Only | Print | Product List | Glossary On
Versions: 1 2 3 4 5 6 7 8 9 10 11 12 13 14 15 16 17
000
FTAK31 PAFA 211135
TAFAGA
TAF
PAGA 211135Z 2112/2212 VRB03KT P6SM BCFG FEW005
     FM211700 29004KT P6SM SKC
     FM220200 23005KT P6SM FEW100 SCT200
     FM221000 21005KT P6SM VCSH SCT050 BKN100 OVC200=

USA.gov is the U.S. government's official web portal to all federal, state and local government web resources and services.